sensor_id;sensor_type;location;lat;lon;timestamp;temperature;humidity
49549;DHT22;35450;44.518;7.466;2023-08-17T00:02:49;24.90;95.80
49549;DHT22;35450;44.518;7.466;2023-08-17T00:05:53;24.90;95.50
49549;DHT22;35450;44.518;7.466;2023-08-17T00:08:57;24.90;95.70
49549;DHT22;35450;44.518;7.466;2023-08-17T00:12:01;24.90;95.80
49549;DHT22;35450;44.518;7.466;2023-08-17T00:15:05;24.90;95.80
49549;DHT22;35450;44.518;7.466;2023-08-17T00:18:09;24.90;95.80
49549;DHT22;35450;44.518;7.466;2023-08-17T00:21:13;24.80;95.90
49549;DHT22;35450;44.518;7.466;2023-08-17T00:24:17;24.90;95.80
49549;DHT22;35450;44.518;7.466;2023-08-17T00:27:21;24.90;95.70
49549;DHT22;35450;44.518;7.466;2023-08-17T00:30:24;24.90;95.80
49549;DHT22;35450;44.518;7.466;2023-08-17T00:33:29;24.80;95.70
49549;DHT22;35450;44.518;7.466;2023-08-17T00:36:33;24.90;95.70
49549;DHT22;35450;44.518;7.466;2023-08-17T00:39:37;25.00;95.70
49549;DHT22;35450;44.518;7.466;2023-08-17T00:42:40;25.00;95.60
49549;DHT22;35450;44.518;7.466;2023-08-17T00:45:46;25.00;95.50
49549;DHT22;35450;44.518;7.466;2023-08-17T00:48:50;25.00;95.60
49549;DHT22;35450;44.518;7.466;2023-08-17T00:51:54;25.00;95.50
49549;DHT22;35450;44.518;7.466;2023-08-17T00:54:58;25.00;95.70
49549;DHT22;35450;44.518;7.466;2023-08-17T00:58:04;24.90;95.90
49549;DHT22;35450;44.518;7.466;2023-08-17T01:01:08;24.90;95.70
49549;DHT22;35450;44.518;7.466;2023-08-17T01:04:14;25.00;95.70
49549;DHT22;35450;44.518;7.466;2023-08-17T01:07:18;25.00;95.70
49549;DHT22;35450;44.518;7.466;2023-08-17T01:10:22;24.90;96.00
49549;DHT22;35450;44.518;7.466;2023-08-17T01:13:32;24.80;96.10
49549;DHT22;35450;44.518;7.466;2023-08-17T01:16:56;24.80;96.20
49549;DHT22;35450;44.518;7.466;2023-08-17T01:20:06;24.80;96.40
49549;DHT22;35450;44.518;7.466;2023-08-17T01:23:11;24.80;96.40
49549;DHT22;35450;44.518;7.466;2023-08-17T01:26:15;24.60;96.90
49549;DHT22;35450;44.518;7.466;2023-08-17T01:29:20;24.50;96.60
49549;DHT22;35450;44.518;7.466;2023-08-17T01:32:43;24.50;96.70
49549;DHT22;35450;44.518;7.466;2023-08-17T01:36:05;24.40;96.70
49549;DHT22;35450;44.518;7.466;2023-08-17T01:39:11;24.50;96.30
49549;DHT22;35450;44.518;7.466;2023-08-17T01:42:16;24.50;96.10
49549;DHT22;35450;44.518;7.466;2023-08-17T01:45:20;24.50;96.20
49549;DHT22;35450;44.518;7.466;2023-08-17T01:48:23;24.70;96.40
49549;DHT22;35450;44.518;7.466;2023-08-17T01:51:27;24.70;96.30
49549;DHT22;35450;44.518;7.466;2023-08-17T01:54:31;24.60;96.20
49549;DHT22;35450;44.518;7.466;2023-08-17T01:57:35;24.60;96.40
49549;DHT22;35450;44.518;7.466;2023-08-17T02:00:40;24.70;96.60
49549;DHT22;35450;44.518;7.466;2023-08-17T02:03:45;24.70;96.70
49549;DHT22;35450;44.518;7.466;2023-08-17T02:06:49;24.70;96.70
49549;DHT22;35450;44.518;7.466;2023-08-17T02:09:53;24.70;96.60
49549;DHT22;35450;44.518;7.466;2023-08-17T02:12:57;24.60;96.70
49549;DHT22;35450;44.518;7.466;2023-08-17T02:16:01;24.60;97.00
49549;DHT22;35450;44.518;7.466;2023-08-17T02:19:05;24.40;97.10
49549;DHT22;35450;44.518;7.466;2023-08-17T02:22:09;24.40;97.10
49549;DHT22;35450;44.518;7.466;2023-08-17T02:25:13;24.30;97.10
49549;DHT22;35450;44.518;7.466;2023-08-17T02:28:17;24.30;97.20
49549;DHT22;35450;44.518;7.466;2023-08-17T02:31:21;24.40;97.20
49549;DHT22;35450;44.518;7.466;2023-08-17T02:34:25;24.40;97.00
49549;DHT22;35450;44.518;7.466;2023-08-17T02:37:29;24.20;97.10
49549;DHT22;35450;44.518;7.466;2023-08-17T02:40:33;24.20;97.40
49549;DHT22;35450;44.518;7.466;2023-08-17T02:43:37;24.30;97.30
49549;DHT22;35450;44.518;7.466;2023-08-17T02:46:41;24.30;97.50
49549;DHT22;35450;44.518;7.466;2023-08-17T02:49:45;24.30;97.30
49549;DHT22;35450;44.518;7.466;2023-08-17T02:52:49;24.30;97.10
49549;DHT22;35450;44.518;7.466;2023-08-17T02:55:53;24.40;97.00
49549;DHT22;35450;44.518;7.466;2023-08-17T02:58:57;24.40;96.90
49549;DHT22;35450;44.518;7.466;2023-08-17T03:02:01;24.40;96.90
49549;DHT22;35450;44.518;7.466;2023-08-17T03:05:05;24.40;97.00
49549;DHT22;35450;44.518;7.466;2023-08-17T03:08:10;24.40;97.30
49549;DHT22;35450;44.518;7.466;2023-08-17T03:11:13;24.20;97.00
49549;DHT22;35450;44.518;7.466;2023-08-17T03:14:17;24.30;97.10
49549;DHT22;35450;44.518;7.466;2023-08-17T03:17:21;24.50;97.10
49549;DHT22;35450;44.518;7.466;2023-08-17T03:20:26;24.50;97.10
49549;DHT22;35450;44.518;7.466;2023-08-17T03:23:30;24.50;97.10
49549;DHT22;35450;44.518;7.466;2023-08-17T03:26:34;24.50;97.20
49549;DHT22;35450;44.518;7.466;2023-08-17T03:29:38;24.40;97.10
49549;DHT22;35450;44.518;7.466;2023-08-17T03:32:42;24.40;96.80
49549;DHT22;35450;44.518;7.466;2023-08-17T03:35:47;24.40;96.70
49549;DHT22;35450;44.518;7.466;2023-08-17T03:38:51;24.40;96.60
49549;DHT22;35450;44.518;7.466;2023-08-17T03:41:55;24.40;96.60
49549;DHT22;35450;44.518;7.466;2023-08-17T03:44:59;24.40;96.20
49549;DHT22;35450;44.518;7.466;2023-08-17T03:48:03;24.50;96.20
49549;DHT22;35450;44.518;7.466;2023-08-17T03:51:08;24.50;96.30
49549;DHT22;35450;44.518;7.466;2023-08-17T03:54:16;24.50;96.10
49549;DHT22;35450;44.518;7.466;2023-08-17T03:57:21;24.50;96.00
49549;DHT22;35450;44.518;7.466;2023-08-17T04:00:24;24.50;95.80
49549;DHT22;35450;44.518;7.466;2023-08-17T04:03:33;24.60;95.60
49549;DHT22;35450;44.518;7.466;2023-08-17T04:06:37;24.50;95.70
49549;DHT22;35450;44.518;7.466;2023-08-17T04:09:45;24.60;95.10
49549;DHT22;35450;44.518;7.466;2023-08-17T04:12:49;24.60;94.90
49549;DHT22;35450;44.518;7.466;2023-08-17T04:15:53;24.70;94.80
49549;DHT22;35450;44.518;7.466;2023-08-17T04:18:57;24.60;94.70
49549;DHT22;35450;44.518;7.466;2023-08-17T04:22:01;24.70;94.60
49549;DHT22;35450;44.518;7.466;2023-08-17T04:25:06;24.70;94.60
49549;DHT22;35450;44.518;7.466;2023-08-17T04:28:11;24.70;94.50
49549;DHT22;35450;44.518;7.466;2023-08-17T04:31:15;24.70;94.60
49549;DHT22;35450;44.518;7.466;2023-08-17T04:34:22;24.70;94.80
49549;DHT22;35450;44.518;7.466;2023-08-17T04:37:26;24.60;94.60
49549;DHT22;35450;44.518;7.466;2023-08-17T04:40:31;24.60;94.60
49549;DHT22;35450;44.518;7.466;2023-08-17T04:43:36;24.60;94.70
49549;DHT22;35450;44.518;7.466;2023-08-17T04:46:41;24.60;94.70
49549;DHT22;35450;44.518;7.466;2023-08-17T04:49:45;24.60;94.70
49549;DHT22;35450;44.518;7.466;2023-08-17T04:52:49;24.60;94.70
49549;DHT22;35450;44.518;7.466;2023-08-17T04:55:53;24.60;94.80
49549;DHT22;35450;44.518;7.466;2023-08-17T04:58:57;24.60;94.80
49549;DHT22;35450;44.518;7.466;2023-08-17T05:02:01;24.50;94.90
49549;DHT22;35450;44.518;7.466;2023-08-17T05:05:06;24.50;95.20
49549;DHT22;35450;44.518;7.466;2023-08-17T05:08:11;24.40;95.60
49549;DHT22;35450;44.518;7.466;2023-08-17T05:11:16;24.40;95.50
49549;DHT22;35450;44.518;7.466;2023-08-17T05:14:21;24.40;95.40
49549;DHT22;35450;44.518;7.466;2023-08-17T05:17:25;24.40;95.70
49549;DHT22;35450;44.518;7.466;2023-08-17T05:20:29;24.40;95.40
49549;DHT22;35450;44.518;7.466;2023-08-17T05:23:33;24.40;95.50
49549;DHT22;35450;44.518;7.466;2023-08-17T05:26:38;24.40;95.50
49549;DHT22;35450;44.518;7.466;2023-08-17T05:29:43;24.50;95.50
49549;DHT22;35450;44.518;7.466;2023-08-17T05:32:47;24.50;95.50
49549;DHT22;35450;44.518;7.466;2023-08-17T05:35:54;24.50;95.60
49549;DHT22;35450;44.518;7.466;2023-08-17T05:38:59;24.50;95.80
49549;DHT22;35450;44.518;7.466;2023-08-17T05:42:04;24.50;95.90
49549;DHT22;35450;44.518;7.466;2023-08-17T05:45:09;24.50;96.10
49549;DHT22;35450;44.518;7.466;2023-08-17T05:48:13;24.50;96.30
49549;DHT22;35450;44.518;7.466;2023-08-17T05:51:16;24.40;96.50
49549;DHT22;35450;44.518;7.466;2023-08-17T05:54:20;24.50;96.90
49549;DHT22;35450;44.518;7.466;2023-08-17T05:57:24;24.40;96.50
49549;DHT22;35450;44.518;7.466;2023-08-17T06:00:29;24.30;96.60
49549;DHT22;35450;44.518;7.466;2023-08-17T06:03:34;24.40;96.80
49549;DHT22;35450;44.518;7.466;2023-08-17T06:06:38;24.40;96.50
49549;DHT22;35450;44.518;7.466;2023-08-17T06:09:42;24.40;96.70
49549;DHT22;35450;44.518;7.466;2023-08-17T06:12:46;24.50;96.60
49549;DHT22;35450;44.518;7.466;2023-08-17T06:15:50;24.40;96.30
49549;DHT22;35450;44.518;7.466;2023-08-17T06:18:54;24.40;96.00
49549;DHT22;35450;44.518;7.466;2023-08-17T06:21:58;24.50;95.90
49549;DHT22;35450;44.518;7.466;2023-08-17T06:25:03;24.50;96.00
49549;DHT22;35450;44.518;7.466;2023-08-17T06:28:09;24.60;95.90
49549;DHT22;35450;44.518;7.466;2023-08-17T06:31:16;24.70;95.70
49549;DHT22;35450;44.518;7.466;2023-08-17T06:34:20;24.80;95.80
49549;DHT22;35450;44.518;7.466;2023-08-17T06:37:24;24.90;95.80
49549;DHT22;35450;44.518;7.466;2023-08-17T06:40:28;24.90;95.90
49549;DHT22;35450;44.518;7.466;2023-08-17T06:43:32;24.90;95.70
49549;DHT22;35450;44.518;7.466;2023-08-17T06:46:36;24.90;95.70
49549;DHT22;35450;44.518;7.466;2023-08-17T06:49:39;25.00;96.00
49549;DHT22;35450;44.518;7.466;2023-08-17T06:52:43;25.00;96.40
49549;DHT22;35450;44.518;7.466;2023-08-17T06:55:49;25.00;95.90
49549;DHT22;35450;44.518;7.466;2023-08-17T06:58:54;24.80;96.20
49549;DHT22;35450;44.518;7.466;2023-08-17T07:01:58;24.80;96.50
49549;DHT22;35450;44.518;7.466;2023-08-17T07:05:02;24.90;96.40
49549;DHT22;35450;44.518;7.466;2023-08-17T07:08:07;24.90;96.10
49549;DHT22;35450;44.518;7.466;2023-08-17T07:11:11;25.00;96.10
49549;DHT22;35450;44.518;7.466;2023-08-17T07:14:15;25.10;96.10
49549;DHT22;35450;44.518;7.466;2023-08-17T07:17:20;25.10;96.00
49549;DHT22;35450;44.518;7.466;2023-08-17T07:20:23;25.10;95.60
49549;DHT22;35450;44.518;7.466;2023-08-17T07:23:27;25.20;95.50
49549;DHT22;35450;44.518;7.466;2023-08-17T07:26:31;25.20;95.50
49549;DHT22;35450;44.518;7.466;2023-08-17T07:29:35;25.30;95.40
49549;DHT22;35450;44.518;7.466;2023-08-17T07:32:39;25.10;95.70
49549;DHT22;35450;44.518;7.466;2023-08-17T07:35:43;25.20;95.80
49549;DHT22;35450;44.518;7.466;2023-08-17T07:38:47;25.30;95.40
49549;DHT22;35450;44.518;7.466;2023-08-17T07:41:51;25.40;95.10
49549;DHT22;35450;44.518;7.466;2023-08-17T07:44:55;25.40;94.40
49549;DHT22;35450;44.518;7.466;2023-08-17T07:47:59;25.60;94.20
49549;DHT22;35450;44.518;7.466;2023-08-17T07:51:03;25.60;94.60
49549;DHT22;35450;44.518;7.466;2023-08-17T07:54:08;25.60;94.50
49549;DHT22;35450;44.518;7.466;2023-08-17T07:57:12;25.60;94.30
49549;DHT22;35450;44.518;7.466;2023-08-17T08:00:16;25.60;94.30
49549;DHT22;35450;44.518;7.466;2023-08-17T08:03:20;25.70;94.30
49549;DHT22;35450;44.518;7.466;2023-08-17T08:06:24;25.80;94.30
49549;DHT22;35450;44.518;7.466;2023-08-17T08:09:28;25.90;94.50
49549;DHT22;35450;44.518;7.466;2023-08-17T08:12:32;26.00;94.50
49549;DHT22;35450;44.518;7.466;2023-08-17T08:15:36;26.10;94.60
49549;DHT22;35450;44.518;7.466;2023-08-17T08:18:40;26.10;94.30
49549;DHT22;35450;44.518;7.466;2023-08-17T08:21:44;26.20;93.90
49549;DHT22;35450;44.518;7.466;2023-08-17T08:24:48;26.20;93.60
49549;DHT22;35450;44.518;7.466;2023-08-17T08:27:52;26.20;93.70
49549;DHT22;35450;44.518;7.466;2023-08-17T08:31:01;26.30;93.20
49549;DHT22;35450;44.518;7.466;2023-08-17T08:34:06;26.30;92.90
49549;DHT22;35450;44.518;7.466;2023-08-17T08:37:10;26.20;93.10
49549;DHT22;35450;44.518;7.466;2023-08-17T08:40:14;26.30;92.90
49549;DHT22;35450;44.518;7.466;2023-08-17T08:43:20;26.30;92.90
49549;DHT22;35450;44.518;7.466;2023-08-17T08:46:26;26.40;93.20
49549;DHT22;35450;44.518;7.466;2023-08-17T08:49:40;26.50;93.30
49549;DHT22;35450;44.518;7.466;2023-08-17T08:52:58;26.60;93.10
49549;DHT22;35450;44.518;7.466;2023-08-17T08:56:03;26.70;92.70
49549;DHT22;35450;44.518;7.466;2023-08-17T08:59:08;26.70;92.70
49549;DHT22;35450;44.518;7.466;2023-08-17T09:02:14;26.70;92.70
49549;DHT22;35450;44.518;7.466;2023-08-17T09:05:21;26.70;92.90
49549;DHT22;35450;44.518;7.466;2023-08-17T09:08:29;26.70;92.50
49549;DHT22;35450;44.518;7.466;2023-08-17T09:11:34;26.80;92.30
49549;DHT22;35450;44.518;7.466;2023-08-17T09:14:38;26.90;92.70
49549;DHT22;35450;44.518;7.466;2023-08-17T09:17:44;27.00;92.90
49549;DHT22;35450;44.518;7.466;2023-08-17T09:20:51;27.00;92.80
49549;DHT22;35450;44.518;7.466;2023-08-17T09:23:56;27.00;92.90
49549;DHT22;35450;44.518;7.466;2023-08-17T09:27:00;27.10;92.90
49549;DHT22;35450;44.518;7.466;2023-08-17T09:30:09;27.20;92.80
49549;DHT22;35450;44.518;7.466;2023-08-17T09:33:13;27.20;93.00
49549;DHT22;35450;44.518;7.466;2023-08-17T09:36:22;27.30;93.10
49549;DHT22;35450;44.518;7.466;2023-08-17T09:39:26;27.30;92.90
49549;DHT22;35450;44.518;7.466;2023-08-17T09:42:34;27.40;92.70
49549;DHT22;35450;44.518;7.466;2023-08-17T09:45:39;27.50;92.90
49549;DHT22;35450;44.518;7.466;2023-08-17T09:48:43;27.40;92.60
49549;DHT22;35450;44.518;7.466;2023-08-17T09:51:49;27.20;92.70
49549;DHT22;35450;44.518;7.466;2023-08-17T09:54:53;27.20;92.90
49549;DHT22;35450;44.518;7.466;2023-08-17T09:57:59;27.20;92.40
49549;DHT22;35450;44.518;7.466;2023-08-17T10:01:05;27.10;92.70
49549;DHT22;35450;44.518;7.466;2023-08-17T10:04:12;27.00;93.40
49549;DHT22;35450;44.518;7.466;2023-08-17T10:07:19;27.10;93.10
49549;DHT22;35450;44.518;7.466;2023-08-17T10:10:27;27.20;93.30
49549;DHT22;35450;44.518;7.466;2023-08-17T10:13:48;27.20;93.40
49549;DHT22;35450;44.518;7.466;2023-08-17T10:16:59;27.30;93.10
49549;DHT22;35450;44.518;7.466;2023-08-17T10:20:05;27.30;92.90
49549;DHT22;35450;44.518;7.466;2023-08-17T10:23:22;27.30;93.20
49549;DHT22;35450;44.518;7.466;2023-08-17T10:26:28;27.20;93.20
49549;DHT22;35450;44.518;7.466;2023-08-17T10:29:33;27.20;93.30
49549;DHT22;35450;44.518;7.466;2023-08-17T10:32:39;27.30;93.10
49549;DHT22;35450;44.518;7.466;2023-08-17T10:35:45;27.30;93.20
49549;DHT22;35450;44.518;7.466;2023-08-17T10:39:18;27.30;93.00
49549;DHT22;35450;44.518;7.466;2023-08-17T10:42:35;27.30;92.80
49549;DHT22;35450;44.518;7.466;2023-08-17T10:45:39;27.30;92.50
49549;DHT22;35450;44.518;7.466;2023-08-17T10:48:44;27.30;92.40
49549;DHT22;35450;44.518;7.466;2023-08-17T10:52:03;27.30;93.00
49549;DHT22;35450;44.518;7.466;2023-08-17T10:55:08;27.30;93.00
49549;DHT22;35450;44.518;7.466;2023-08-17T10:58:14;27.30;93.10
49549;DHT22;35450;44.518;7.466;2023-08-17T11:01:32;27.30;93.00
49549;DHT22;35450;44.518;7.466;2023-08-17T11:04:36;27.30;93.00
49549;DHT22;35450;44.518;7.466;2023-08-17T11:07:41;27.30;92.60
49549;DHT22;35450;44.518;7.466;2023-08-17T11:11:03;27.30;92.20
49549;DHT22;35450;44.518;7.466;2023-08-17T11:14:08;27.40;91.80
49549;DHT22;35450;44.518;7.466;2023-08-17T11:17:13;27.30;91.80
49549;DHT22;35450;44.518;7.466;2023-08-17T11:20:17;27.40;91.80
49549;DHT22;35450;44.518;7.466;2023-08-17T11:23:22;27.40;91.80
49549;DHT22;35450;44.518;7.466;2023-08-17T11:26:27;27.50;92.40
49549;DHT22;35450;44.518;7.466;2023-08-17T11:29:33;27.60;92.20
49549;DHT22;35450;44.518;7.466;2023-08-17T11:32:37;27.60;91.80
49549;DHT22;35450;44.518;7.466;2023-08-17T11:35:41;27.70;91.70
49549;DHT22;35450;44.518;7.466;2023-08-17T11:38:45;27.80;91.70
49549;DHT22;35450;44.518;7.466;2023-08-17T11:41:52;27.80;91.40
49549;DHT22;35450;44.518;7.466;2023-08-17T11:44:56;27.90;91.30
49549;DHT22;35450;44.518;7.466;2023-08-17T11:48:00;27.90;91.10
49549;DHT22;35450;44.518;7.466;2023-08-17T11:51:05;27.90;91.00
49549;DHT22;35450;44.518;7.466;2023-08-17T11:54:10;27.90;91.20
49549;DHT22;35450;44.518;7.466;2023-08-17T11:57:14;27.90;91.20
49549;DHT22;35450;44.518;7.466;2023-08-17T12:00:20;28.00;90.90
49549;DHT22;35450;44.518;7.466;2023-08-17T12:03:25;28.00;91.00
49549;DHT22;35450;44.518;7.466;2023-08-17T12:06:30;27.90;91.20
49549;DHT22;35450;44.518;7.466;2023-08-17T12:09:35;27.90;91.30
49549;DHT22;35450;44.518;7.466;2023-08-17T12:12:39;27.90;91.10
49549;DHT22;35450;44.518;7.466;2023-08-17T12:15:44;27.90;91.00
49549;DHT22;35450;44.518;7.466;2023-08-17T12:18:52;27.90;91.00
49549;DHT22;35450;44.518;7.466;2023-08-17T12:21:56;28.00;90.30
49549;DHT22;35450;44.518;7.466;2023-08-17T12:25:02;28.00;90.30
49549;DHT22;35450;44.518;7.466;2023-08-17T12:28:07;28.10;90.30
49549;DHT22;35450;44.518;7.466;2023-08-17T12:31:11;28.00;90.10
49549;DHT22;35450;44.518;7.466;2023-08-17T12:34:15;28.00;90.10
49549;DHT22;35450;44.518;7.466;2023-08-17T12:37:20;28.10;89.90
49549;DHT22;35450;44.518;7.466;2023-08-17T12:40:27;28.10;89.60
49549;DHT22;35450;44.518;7.466;2023-08-17T12:43:31;28.10;89.90
49549;DHT22;35450;44.518;7.466;2023-08-17T12:46:35;28.20;89.40
49549;DHT22;35450;44.518;7.466;2023-08-17T12:49:39;28.20;88.60
49549;DHT22;35450;44.518;7.466;2023-08-17T12:52:43;28.20;88.40
49549;DHT22;35450;44.518;7.466;2023-08-17T12:55:47;28.20;88.40
49549;DHT22;35450;44.518;7.466;2023-08-17T12:58:52;28.30;88.00
49549;DHT22;35450;44.518;7.466;2023-08-17T13:01:56;28.20;87.10
49549;DHT22;35450;44.518;7.466;2023-08-17T13:05:00;28.20;87.00
49549;DHT22;35450;44.518;7.466;2023-08-17T13:08:04;28.30;85.90
49549;DHT22;35450;44.518;7.466;2023-08-17T13:11:08;28.30;85.20
49549;DHT22;35450;44.518;7.466;2023-08-17T13:14:13;28.40;85.80
49549;DHT22;35450;44.518;7.466;2023-08-17T13:17:17;28.50;86.70
49549;DHT22;35450;44.518;7.466;2023-08-17T13:20:22;28.50;88.10
49549;DHT22;35450;44.518;7.466;2023-08-17T13:23:26;28.60;88.00
49549;DHT22;35450;44.518;7.466;2023-08-17T13:26:30;28.70;87.60
49549;DHT22;35450;44.518;7.466;2023-08-17T13:29:34;28.70;88.20
49549;DHT22;35450;44.518;7.466;2023-08-17T13:32:39;28.70;87.10
49549;DHT22;35450;44.518;7.466;2023-08-17T13:35:43;28.70;88.70
49549;DHT22;35450;44.518;7.466;2023-08-17T13:38:47;28.60;89.20
49549;DHT22;35450;44.518;7.466;2023-08-17T13:41:51;28.60;89.20
49549;DHT22;35450;44.518;7.466;2023-08-17T13:44:55;28.60;87.50
49549;DHT22;35450;44.518;7.466;2023-08-17T13:47:59;28.70;89.00
49549;DHT22;35450;44.518;7.466;2023-08-17T13:51:03;28.80;86.00
49549;DHT22;35450;44.518;7.466;2023-08-17T13:54:07;28.90;85.50
49549;DHT22;35450;44.518;7.466;2023-08-17T13:57:11;28.90;85.20
49549;DHT22;35450;44.518;7.466;2023-08-17T14:00:16;29.00;85.10
49549;DHT22;35450;44.518;7.466;2023-08-17T14:03:20;29.00;84.40
49549;DHT22;35450;44.518;7.466;2023-08-17T14:06:24;29.00;85.30
49549;DHT22;35450;44.518;7.466;2023-08-17T14:09:28;29.00;85.30
49549;DHT22;35450;44.518;7.466;2023-08-17T14:12:32;29.10;84.10
49549;DHT22;35450;44.518;7.466;2023-08-17T14:15:37;29.20;85.40
49549;DHT22;35450;44.518;7.466;2023-08-17T14:18:42;29.20;85.60
49549;DHT22;35450;44.518;7.466;2023-08-17T14:21:46;29.20;85.50
49549;DHT22;35450;44.518;7.466;2023-08-17T14:24:50;29.20;86.50
49549;DHT22;35450;44.518;7.466;2023-08-17T14:27:54;29.20;85.80
49549;DHT22;35450;44.518;7.466;2023-08-17T14:30:58;29.10;86.20
49549;DHT22;35450;44.518;7.466;2023-08-17T14:34:02;29.30;85.80
49549;DHT22;35450;44.518;7.466;2023-08-17T14:37:06;29.30;84.90
49549;DHT22;35450;44.518;7.466;2023-08-17T14:40:10;29.30;83.10
49549;DHT22;35450;44.518;7.466;2023-08-17T14:43:14;29.40;83.20
49549;DHT22;35450;44.518;7.466;2023-08-17T14:46:18;29.50;83.80
49549;DHT22;35450;44.518;7.466;2023-08-17T14:49:22;29.50;85.60
49549;DHT22;35450;44.518;7.466;2023-08-17T14:52:26;29.60;90.70
49549;DHT22;35450;44.518;7.466;2023-08-17T14:55:31;29.60;90.80
49549;DHT22;35450;44.518;7.466;2023-08-17T14:58:34;29.60;90.60
49549;DHT22;35450;44.518;7.466;2023-08-17T15:01:39;29.60;90.70
49549;DHT22;35450;44.518;7.466;2023-08-17T15:04:43;29.60;91.10
49549;DHT22;35450;44.518;7.466;2023-08-17T15:07:47;29.60;90.80
49549;DHT22;35450;44.518;7.466;2023-08-17T15:10:51;29.60;90.50
49549;DHT22;35450;44.518;7.466;2023-08-17T15:13:55;29.60;90.50
49549;DHT22;35450;44.518;7.466;2023-08-17T15:16:59;29.60;90.70
49549;DHT22;35450;44.518;7.466;2023-08-17T15:20:04;29.70;90.70
49549;DHT22;35450;44.518;7.466;2023-08-17T15:23:08;29.80;90.70
49549;DHT22;35450;44.518;7.466;2023-08-17T15:26:13;30.20;90.20
49549;DHT22;35450;44.518;7.466;2023-08-17T15:29:16;30.70;88.30
49549;DHT22;35450;44.518;7.466;2023-08-17T15:32:21;30.80;87.70
49549;DHT22;35450;44.518;7.466;2023-08-17T15:35:24;31.00;86.90
49549;DHT22;35450;44.518;7.466;2023-08-17T15:38:28;31.30;86.10
49549;DHT22;35450;44.518;7.466;2023-08-17T15:41:33;32.00;85.90
49549;DHT22;35450;44.518;7.466;2023-08-17T15:44:37;32.80;84.00
49549;DHT22;35450;44.518;7.466;2023-08-17T15:47:41;32.70;83.20
49549;DHT22;35450;44.518;7.466;2023-08-17T15:50:45;32.30;84.40
49549;DHT22;35450;44.518;7.466;2023-08-17T15:53:49;32.20;84.10
49549;DHT22;35450;44.518;7.466;2023-08-17T15:56:53;33.10;81.90
49549;DHT22;35450;44.518;7.466;2023-08-17T15:59:57;33.60;80.90
49549;DHT22;35450;44.518;7.466;2023-08-17T16:03:01;33.10;81.10
49549;DHT22;35450;44.518;7.466;2023-08-17T16:06:06;32.40;83.40
49549;DHT22;35450;44.518;7.466;2023-08-17T16:09:10;32.00;85.20
49549;DHT22;35450;44.518;7.466;2023-08-17T16:12:14;32.20;84.40
49549;DHT22;35450;44.518;7.466;2023-08-17T16:15:18;32.90;82.20
49549;DHT22;35450;44.518;7.466;2023-08-17T16:18:22;33.20;81.20
49549;DHT22;35450;44.518;7.466;2023-08-17T16:21:26;32.70;82.30
49549;DHT22;35450;44.518;7.466;2023-08-17T16:24:30;32.10;83.40
49549;DHT22;35450;44.518;7.466;2023-08-17T16:27:34;31.60;84.70
49549;DHT22;35450;44.518;7.466;2023-08-17T16:30:38;31.10;85.60
49549;DHT22;35450;44.518;7.466;2023-08-17T16:33:45;30.90;87.10
49549;DHT22;35450;44.518;7.466;2023-08-17T16:36:49;30.80;86.90
49549;DHT22;35450;44.518;7.466;2023-08-17T16:39:53;30.90;86.90
49549;DHT22;35450;44.518;7.466;2023-08-17T16:42:57;30.80;87.20
49549;DHT22;35450;44.518;7.466;2023-08-17T16:46:01;30.60;87.70
49549;DHT22;35450;44.518;7.466;2023-08-17T16:49:06;30.50;87.70
49549;DHT22;35450;44.518;7.466;2023-08-17T16:52:10;30.50;87.60
49549;DHT22;35450;44.518;7.466;2023-08-17T16:55:13;30.30;87.50
49549;DHT22;35450;44.518;7.466;2023-08-17T16:58:18;30.10;89.00
49549;DHT22;35450;44.518;7.466;2023-08-17T17:01:22;30.00;89.30
49549;DHT22;35450;44.518;7.466;2023-08-17T17:04:27;30.10;88.90
49549;DHT22;35450;44.518;7.466;2023-08-17T17:07:31;30.10;89.40
49549;DHT22;35450;44.518;7.466;2023-08-17T17:10:35;30.10;89.50
49549;DHT22;35450;44.518;7.466;2023-08-17T17:13:39;30.00;89.70
49549;DHT22;35450;44.518;7.466;2023-08-17T17:16:43;29.90;90.10
49549;DHT22;35450;44.518;7.466;2023-08-17T17:19:47;29.80;90.40
49549;DHT22;35450;44.518;7.466;2023-08-17T17:22:51;29.60;90.60
49549;DHT22;35450;44.518;7.466;2023-08-17T17:25:56;29.60;90.30
49549;DHT22;35450;44.518;7.466;2023-08-17T17:29:00;29.60;90.00
49549;DHT22;35450;44.518;7.466;2023-08-17T17:32:05;29.40;88.60
49549;DHT22;35450;44.518;7.466;2023-08-17T17:35:10;29.20;90.20
49549;DHT22;35450;44.518;7.466;2023-08-17T17:38:14;29.00;90.10
49549;DHT22;35450;44.518;7.466;2023-08-17T17:41:18;28.80;90.50
49549;DHT22;35450;44.518;7.466;2023-08-17T17:44:22;28.60;91.60
49549;DHT22;35450;44.518;7.466;2023-08-17T17:47:26;27.40;93.40
49549;DHT22;35450;44.518;7.466;2023-08-17T17:50:30;26.70;94.10
49549;DHT22;35450;44.518;7.466;2023-08-17T17:53:34;26.00;95.60
49549;DHT22;35450;44.518;7.466;2023-08-17T17:56:44;25.50;96.10
49549;DHT22;35450;44.518;7.466;2023-08-17T17:59:49;24.50;99.30
49549;DHT22;35450;44.518;7.466;2023-08-17T18:02:54;23.60;96.60
49549;DHT22;35450;44.518;7.466;2023-08-17T18:05:58;23.30;98.10
49549;DHT22;35450;44.518;7.466;2023-08-17T18:09:03;23.30;99.90
49549;DHT22;35450;44.518;7.466;2023-08-17T18:12:08;23.40;99.90
49549;DHT22;35450;44.518;7.466;2023-08-17T18:15:13;23.40;99.90
49549;DHT22;35450;44.518;7.466;2023-08-17T18:18:17;23.40;99.10
49549;DHT22;35450;44.518;7.466;2023-08-17T18:21:21;23.40;99.60
49549;DHT22;35450;44.518;7.466;2023-08-17T18:24:25;23.60;99.90
49549;DHT22;35450;44.518;7.466;2023-08-17T18:27:30;23.80;99.00
49549;DHT22;35450;44.518;7.466;2023-08-17T18:30:34;24.00;99.70
49549;DHT22;35450;44.518;7.466;2023-08-17T18:33:38;24.10;99.30
49549;DHT22;35450;44.518;7.466;2023-08-17T18:36:42;24.10;99.20
49549;DHT22;35450;44.518;7.466;2023-08-17T18:39:46;24.10;99.70
49549;DHT22;35450;44.518;7.466;2023-08-17T18:42:50;23.90;99.40
49549;DHT22;35450;44.518;7.466;2023-08-17T18:45:54;23.90;99.60
49549;DHT22;35450;44.518;7.466;2023-08-17T18:48:58;24.10;99.90
49549;DHT22;35450;44.518;7.466;2023-08-17T18:52:02;23.80;95.20
49549;DHT22;35450;44.518;7.466;2023-08-17T18:55:06;23.60;96.80
49549;DHT22;35450;44.518;7.466;2023-08-17T18:58:15;23.50;99.10
49549;DHT22;35450;44.518;7.466;2023-08-17T19:01:20;23.20;97.90
49549;DHT22;35450;44.518;7.466;2023-08-17T19:04:24;23.10;98.10
49549;DHT22;35450;44.518;7.466;2023-08-17T19:07:28;23.20;97.10
49549;DHT22;35450;44.518;7.466;2023-08-17T19:10:32;23.50;96.90
49549;DHT22;35450;44.518;7.466;2023-08-17T19:13:36;23.70;97.10
49549;DHT22;35450;44.518;7.466;2023-08-17T19:16:40;23.80;95.10
49549;DHT22;35450;44.518;7.466;2023-08-17T19:19:45;23.80;95.60
49549;DHT22;35450;44.518;7.466;2023-08-17T19:22:49;23.60;95.40
49549;DHT22;35450;44.518;7.466;2023-08-17T19:25:53;23.60;95.20
49549;DHT22;35450;44.518;7.466;2023-08-17T19:28:57;23.50;95.50